createdAt,value
2022-10-02T00:01:05.087Z,93.86
2022-10-02T00:03:37.597Z,93.86
2022-10-02T00:06:21.221Z,93.90
2022-10-02T00:08:52.197Z,93.97
2022-10-02T00:11:22.972Z,94.14
2022-10-02T00:14:00.567Z,94.17
2022-10-02T00:16:38.951Z,94.13
2022-10-02T00:19:11.269Z,94.12
2022-10-02T00:21:57.562Z,94.22
2022-10-02T00:24:51.774Z,94.19
2022-10-02T00:27:37.898Z,94.19
2022-10-02T00:30:06.530Z,94.19
2022-10-02T00:32:37.881Z,94.09
2022-10-02T00:35:24.931Z,94.11
2022-10-02T00:38:01.570Z,94.17
2022-10-02T00:40:58.110Z,94.25
2022-10-02T00:43:44.993Z,94.27
2022-10-02T00:46:42.210Z,94.21
2022-10-02T00:49:13.159Z,94.43
2022-10-02T00:52:00.511Z,94.17
2022-10-02T00:55:04.070Z,94.38
2022-10-02T00:57:41.317Z,94.39
2022-10-02T01:00:12.155Z,94.41
2022-10-02T01:02:40.347Z,94.38
2022-10-02T01:05:09.412Z,94.46
2022-10-02T01:07:39.950Z,94.37
2022-10-02T01:10:09.360Z,94.45
2022-10-02T01:12:38.269Z,94.67
2022-10-02T01:15:16.843Z,94.57
2022-10-02T01:17:46.391Z,94.74
2022-10-02T01:20:17.786Z,94.71
2022-10-02T01:22:49.153Z,94.90
2022-10-02T01:25:17.397Z,94.72
2022-10-02T01:27:45.491Z,94.95
2022-10-02T01:30:17.961Z,94.96
2022-10-02T01:32:49.298Z,95.09
2022-10-02T01:35:20.245Z,95.13
2022-10-02T01:37:50.131Z,95.17
2022-10-02T01:40:24.161Z,95.20
2022-10-02T01:42:53.015Z,95.19
2022-10-02T01:45:27.158Z,95.13
2022-10-02T01:48:01.581Z,95.18
2022-10-02T01:50:34.085Z,95.21
2022-10-02T01:53:08.317Z,95.12
2022-10-02T01:55:41.236Z,95.06
2022-10-02T01:58:19.959Z,95.18
2022-10-02T02:00:50.657Z,95.25
2022-10-02T02:03:21.610Z,95.32
2022-10-02T02:05:49.568Z,95.25
2022-10-02T02:08:29.143Z,95.39
2022-10-02T02:11:15.702Z,95.33
2022-10-02T02:14:02.385Z,95.39
2022-10-02T02:16:41.012Z,95.45
2022-10-02T02:19:12.178Z,95.34
2022-10-02T02:21:46.439Z,95.41
2022-10-02T02:24:18.620Z,95.39
2022-10-02T02:26:47.311Z,95.45
2022-10-02T02:29:17.416Z,95.44
2022-10-02T02:31:52.369Z,95.43
2022-10-02T02:34:23.890Z,95.34
2022-10-02T02:36:55.338Z,95.40
2022-10-02T02:39:31.126Z,95.46
2022-10-02T02:42:02.450Z,95.58
2022-10-02T02:44:41.433Z,95.55
2022-10-02T02:47:12.958Z,95.53
2022-10-02T02:49:47.184Z,95.61
2022-10-02T02:52:27.721Z,95.57
2022-10-02T02:55:05.035Z,95.57
2022-10-02T02:57:38.004Z,95.65
2022-10-02T03:00:07.367Z,95.64
2022-10-02T03:02:35.448Z,95.65
2022-10-02T03:05:05.886Z,95.65
2022-10-02T03:07:35.476Z,95.64
2022-10-02T03:10:09.719Z,95.65
2022-10-02T03:12:52.547Z,95.59
2022-10-02T03:15:27.270Z,95.39
2022-10-02T03:17:55.227Z,95.45
2022-10-02T03:20:35.026Z,95.43
2022-10-02T03:23:20.898Z,95.45
2022-10-02T03:25:48.947Z,95.35
2022-10-02T03:28:43.451Z,95.28
2022-10-02T03:31:13.038Z,95.35
2022-10-02T03:33:43.764Z,95.30
2022-10-02T03:36:14.394Z,95.34
2022-10-02T03:38:42.934Z,95.29
2022-10-02T03:41:11.283Z,95.33
2022-10-02T03:43:39.237Z,95.29
2022-10-02T03:46:07.349Z,95.34
2022-10-02T03:48:35.491Z,95.16
2022-10-02T03:51:03.481Z,95.14
2022-10-02T03:53:34.427Z,95.11
2022-10-02T03:56:02.490Z,95.23
2022-10-02T03:58:30.527Z,95.24
2022-10-02T04:01:07.874Z,95.12
2022-10-02T04:03:38.402Z,95.13
2022-10-02T04:06:11.677Z,95.16
2022-10-02T04:08:43.879Z,95.12
2022-10-02T04:11:18.697Z,95.23
2022-10-02T04:14:02.878Z,95.24
2022-10-02T04:16:38.529Z,95.11
2022-10-02T04:19:13.079Z,95.07
2022-10-02T04:21:47.221Z,95.16
2022-10-02T04:24:15.207Z,95.15
2022-10-02T04:26:46.137Z,95.16
2022-10-02T04:29:34.244Z,95.08
2022-10-02T04:32:16.787Z,95.14
2022-10-02T04:34:44.928Z,95.16
2022-10-02T04:37:28.451Z,95.09
2022-10-02T04:40:07.261Z,95.28
2022-10-02T04:42:35.278Z,95.10
2022-10-02T04:45:06.286Z,95.18
2022-10-02T04:47:37.443Z,95.24
2022-10-02T04:50:21.003Z,95.13
2022-10-02T04:52:53.107Z,95.10
2022-10-02T04:55:40.271Z,95.11
2022-10-02T04:58:27.083Z,95.12
2022-10-02T05:00:55.776Z,95.09
2022-10-02T05:03:30.015Z,95.26
2022-10-02T05:06:07.499Z,95.15
2022-10-02T05:09:02.103Z,95.15
2022-10-02T05:11:48.568Z,95.16
2022-10-02T05:14:22.658Z,95.21
2022-10-02T05:16:50.664Z,95.20
2022-10-02T05:19:21.492Z,95.08
2022-10-02T05:21:58.591Z,95.05
2022-10-02T05:24:34.408Z,95.10
2022-10-02T05:27:11.695Z,95.09
2022-10-02T05:29:51.881Z,95.07
2022-10-02T05:32:29.138Z,94.95
2022-10-02T05:35:13.100Z,95.03
2022-10-02T05:38:13.501Z,94.98
2022-10-02T05:40:41.517Z,95.01
2022-10-02T05:43:23.788Z,94.99
2022-10-02T05:45:57.129Z,94.96
2022-10-02T05:48:41.995Z,94.94
2022-10-02T05:51:16.824Z,94.86
2022-10-02T05:53:54.180Z,94.91
2022-10-02T05:56:24.313Z,94.87
2022-10-02T05:58:58.967Z,94.91
2022-10-02T06:01:33.572Z,94.96
2022-10-02T06:04:25.434Z,94.98
2022-10-02T06:06:55.264Z,95.01
2022-10-02T06:09:41.238Z,95.00
2022-10-02T06:12:27.055Z,94.97
2022-10-02T06:14:59.325Z,94.98
2022-10-02T06:17:29.428Z,94.94
2022-10-02T06:20:17.137Z,94.92
2022-10-02T06:22:48.336Z,94.87
2022-10-02T06:25:21.473Z,94.90
2022-10-02T06:27:55.823Z,94.95
2022-10-02T06:30:23.910Z,94.93
2022-10-02T06:32:55.229Z,94.88
2022-10-02T06:35:34.679Z,94.80
2022-10-02T06:38:09.054Z,94.86
2022-10-02T06:40:46.033Z,94.82
2022-10-02T06:43:18.347Z,94.80
2022-10-02T06:45:50.166Z,94.84
2022-10-02T06:48:25.436Z,94.74
2022-10-02T06:50:53.456Z,94.82
2022-10-02T06:53:30.685Z,94.56
2022-10-02T06:56:17.611Z,94.73
2022-10-02T06:59:01.057Z,94.62
2022-10-02T07:01:38.286Z,94.70
2022-10-02T07:04:26.131Z,94.70
2022-10-02T07:07:12.922Z,94.58
2022-10-02T07:09:49.275Z,94.62
2022-10-02T07:12:32.670Z,94.50
2022-10-02T07:15:03.528Z,94.42
2022-10-02T07:17:44.156Z,94.40
2022-10-02T07:20:18.999Z,94.36
2022-10-02T07:22:50.076Z,94.23
2022-10-02T07:25:21.274Z,94.41
2022-10-02T07:27:58.548Z,94.36
2022-10-02T07:30:31.965Z,94.00
2022-10-02T07:33:09.649Z,94.10
2022-10-02T07:35:40.977Z,93.86
2022-10-02T07:38:43.596Z,93.96
2022-10-02T07:41:21.174Z,93.63
2022-10-02T07:43:52.349Z,93.35
2022-10-02T07:46:26.556Z,94.08
2022-10-02T07:49:04.416Z,93.93
2022-10-02T07:51:52.416Z,93.64
2022-10-02T07:54:20.395Z,93.47
2022-10-02T07:56:49.351Z,93.24
2022-10-02T07:59:18.082Z,93.10
2022-10-02T08:01:48.194Z,92.67
2022-10-02T08:04:22.368Z,92.15
2022-10-02T08:06:53.610Z,91.81
2022-10-02T08:09:36.585Z,92.01
2022-10-02T08:12:13.323Z,91.71
2022-10-02T08:14:42.697Z,90.98
2022-10-02T08:17:30.140Z,90.72
2022-10-02T08:20:16.912Z,91.03
2022-10-02T08:22:58.339Z,91.13
2022-10-02T08:25:28.851Z,90.79
2022-10-02T08:27:59.851Z,90.24
2022-10-02T08:30:28.022Z,90.54
2022-10-02T08:32:56.703Z,89.94
2022-10-02T08:35:32.154Z,89.80
2022-10-02T08:38:10.568Z,90.20
2022-10-02T08:40:48.856Z,89.83
2022-10-02T08:43:47.621Z,89.80
2022-10-02T08:46:34.991Z,90.00
2022-10-02T08:49:03.159Z,89.02
2022-10-02T08:51:44.815Z,88.48
2022-10-02T08:54:23.937Z,87.71
2022-10-02T08:57:12.920Z,88.47
2022-10-02T08:59:42.280Z,88.64
2022-10-02T09:02:27.853Z,87.89
2022-10-02T09:04:58.767Z,87.81
2022-10-02T09:07:57.071Z,87.37
2022-10-02T09:10:45.958Z,87.59
2022-10-02T09:13:16.992Z,87.45
2022-10-02T09:15:45.144Z,87.08
2022-10-02T09:18:19.345Z,87.46
2022-10-02T09:21:11.334Z,86.61
2022-10-02T09:23:48.812Z,86.92
2022-10-02T09:26:19.464Z,86.73
2022-10-02T09:29:14.033Z,86.58
2022-10-02T09:31:42.172Z,87.03
2022-10-02T09:34:16.219Z,87.19
2022-10-02T09:37:03.491Z,86.88
2022-10-02T09:39:34.220Z,86.93
2022-10-02T09:42:18.229Z,86.91
2022-10-02T09:45:05.526Z,86.81
2022-10-02T09:47:42.581Z,86.62
2022-10-02T09:50:21.662Z,86.96
2022-10-02T09:52:56.003Z,87.01
2022-10-02T09:55:45.745Z,86.68
2022-10-02T09:58:29.206Z,86.76
2022-10-02T10:01:00.358Z,85.87
2022-10-02T10:03:42.728Z,85.90
2022-10-02T10:06:20.140Z,85.66
2022-10-02T10:09:07.175Z,85.46
2022-10-02T10:11:47.958Z,84.97
2022-10-02T10:14:29.492Z,84.31
2022-10-02T10:17:05.798Z,84.40
2022-10-02T10:19:52.630Z,84.29
2022-10-02T10:22:20.829Z,82.87
2022-10-02T10:25:10.922Z,82.61
2022-10-02T10:27:54.167Z,82.84
2022-10-02T10:30:25.514Z,82.94
2022-10-02T10:33:10.324Z,83.23
2022-10-02T10:35:38.292Z,83.06
2022-10-02T10:38:25.302Z,82.85
2022-10-02T10:40:54.051Z,82.96
2022-10-02T10:43:42.194Z,82.52
2022-10-02T10:46:13.436Z,82.93
2022-10-02T10:49:00.696Z,82.86
2022-10-02T10:51:51.813Z,82.71
2022-10-02T10:54:22.838Z,82.69
2022-10-02T10:56:56.918Z,82.22
2022-10-02T10:59:30.779Z,82.43
2022-10-02T11:02:17.364Z,82.61
2022-10-02T11:04:45.575Z,82.21
2022-10-02T11:07:16.507Z,81.83
2022-10-02T11:09:44.655Z,81.35
2022-10-02T11:12:39.301Z,81.13
2022-10-02T11:15:13.432Z,80.93
2022-10-02T11:17:48.410Z,80.69
2022-10-02T11:20:35.225Z,80.90
2022-10-02T11:23:09.072Z,80.62
2022-10-02T11:25:43.011Z,80.86
2022-10-02T11:28:11.137Z,81.48
2022-10-02T11:30:55.062Z,80.49
2022-10-02T11:33:41.844Z,80.08
2022-10-02T11:36:29.952Z,79.81
2022-10-02T11:39:17.519Z,80.04
2022-10-02T11:42:06.002Z,80.47
2022-10-02T11:44:54.717Z,80.27
2022-10-02T11:47:28.885Z,80.64
2022-10-02T11:50:15.839Z,80.96
2022-10-02T11:52:49.853Z,81.20
2022-10-02T11:55:38.226Z,81.35
2022-10-02T11:58:12.172Z,81.17
2022-10-02T12:01:02.107Z,81.27
2022-10-02T12:03:42.445Z,81.31
2022-10-02T12:06:19.441Z,81.11
2022-10-02T12:08:50.191Z,81.00
2022-10-02T12:11:20.427Z,80.84
2022-10-02T12:13:55.328Z,80.24
2022-10-02T12:16:23.416Z,80.17
2022-10-02T12:19:10.213Z,80.04
2022-10-02T12:22:05.076Z,79.03
2022-10-02T12:25:00.950Z,79.46
2022-10-02T12:27:42.753Z,79.37
2022-10-02T12:30:31.728Z,79.27
2022-10-02T12:32:59.672Z,79.08
2022-10-02T12:35:43.114Z,79.15
2022-10-02T12:38:23.181Z,79.13
2022-10-02T12:41:09.963Z,78.61
2022-10-02T12:43:56.478Z,78.39
2022-10-02T12:46:46.161Z,78.10
2022-10-02T12:49:23.786Z,77.50
2022-10-02T12:52:28.777Z,77.65
2022-10-02T12:55:15.720Z,77.93
2022-10-02T12:57:52.890Z,77.77
2022-10-02T13:00:25.104Z,77.32
2022-10-02T13:03:01.282Z,77.95
2022-10-02T13:05:49.253Z,77.76
2022-10-02T13:08:23.475Z,77.22
2022-10-02T13:10:57.444Z,77.42
2022-10-02T13:13:28.249Z,77.55
2022-10-02T13:16:05.537Z,77.15
2022-10-02T13:18:43.934Z,77.66
2022-10-02T13:21:11.967Z,77.61
2022-10-02T13:23:45.918Z,77.37
2022-10-02T13:26:23.105Z,76.69
2022-10-02T13:29:03.023Z,76.39
2022-10-02T13:31:40.373Z,76.40
2022-10-02T13:34:08.553Z,76.59
2022-10-02T13:36:36.645Z,76.62
2022-10-02T13:39:17.387Z,75.70
2022-10-02T13:42:04.249Z,76.13
2022-10-02T13:44:35.978Z,74.92
2022-10-02T13:47:04.032Z,75.29
2022-10-02T13:49:38.186Z,75.00
2022-10-02T13:52:22.124Z,74.57
2022-10-02T13:54:58.607Z,74.31
2022-10-02T13:57:32.621Z,74.65
2022-10-02T14:00:00.791Z,75.21
2022-10-02T14:02:58.412Z,75.07
2022-10-02T14:05:29.363Z,74.34
2022-10-02T14:08:05.436Z,74.85
2022-10-02T14:10:53.254Z,75.36
2022-10-02T14:13:21.339Z,75.67
2022-10-02T14:16:08.637Z,76.03
2022-10-02T14:18:36.882Z,75.97
2022-10-02T14:21:05.108Z,76.17
2022-10-02T14:23:52.277Z,76.30
2022-10-02T14:26:35.416Z,76.38
2022-10-02T14:29:12.325Z,76.58
2022-10-02T14:31:52.686Z,76.85
2022-10-02T14:34:33.062Z,76.94
2022-10-02T14:37:20.004Z,77.27
2022-10-02T14:39:49.834Z,77.50
2022-10-02T14:42:20.709Z,77.74
2022-10-02T14:45:07.864Z,77.54
2022-10-02T14:47:57.739Z,77.77
2022-10-02T14:50:28.315Z,77.66
2022-10-02T14:53:20.094Z,78.14
2022-10-02T14:55:50.915Z,78.06
2022-10-02T14:58:19.081Z,78.01
2022-10-02T15:01:00.441Z,78.26
2022-10-02T15:03:28.376Z,78.13
2022-10-02T15:05:59.093Z,78.29
2022-10-02T15:08:37.496Z,78.52
2022-10-02T15:11:16.749Z,78.53
2022-10-02T15:13:49.239Z,78.61
2022-10-02T15:16:40.281Z,78.63
2022-10-02T15:19:14.255Z,78.87
2022-10-02T15:21:48.449Z,79.15
2022-10-02T15:24:33.430Z,79.05
2022-10-02T15:27:01.588Z,78.94
2022-10-02T15:29:42.095Z,79.16
2022-10-02T15:32:10.091Z,79.18
2022-10-02T15:34:59.194Z,79.38
2022-10-02T15:37:27.311Z,79.38
2022-10-02T15:40:09.908Z,79.28
2022-10-02T15:42:48.048Z,79.39
2022-10-02T15:45:18.619Z,79.56
2022-10-02T15:48:08.235Z,79.70
2022-10-02T15:50:42.995Z,79.66
2022-10-02T15:53:22.779Z,79.65
2022-10-02T15:55:54.959Z,79.75
2022-10-02T15:58:32.164Z,79.98
2022-10-02T16:01:08.895Z,80.15
2022-10-02T16:03:37.091Z,80.38
2022-10-02T16:06:24.128Z,80.32
2022-10-02T16:09:27.899Z,80.57
2022-10-02T16:12:01.902Z,80.58
2022-10-02T16:14:49.240Z,80.86
2022-10-02T16:17:36.617Z,80.86
2022-10-02T16:20:10.595Z,80.77
2022-10-02T16:22:38.876Z,80.84
2022-10-02T16:25:22.234Z,81.05
2022-10-02T16:27:53.103Z,81.30
2022-10-02T16:30:22.420Z,81.67
2022-10-02T16:33:03.061Z,81.81
2022-10-02T16:35:43.489Z,81.58
2022-10-02T16:38:22.889Z,81.86
2022-10-02T16:41:04.582Z,81.81
2022-10-02T16:43:54.048Z,81.71
2022-10-02T16:46:34.887Z,81.77
2022-10-02T16:49:03.355Z,81.93
2022-10-02T16:51:39.403Z,81.93
2022-10-02T16:54:22.794Z,81.92
2022-10-02T16:57:20.741Z,82.22
2022-10-02T17:00:02.607Z,82.01
2022-10-02T17:02:43.548Z,82.07
2022-10-02T17:05:11.631Z,82.09
2022-10-02T17:07:42.555Z,81.79
2022-10-02T17:10:19.205Z,82.15
2022-10-02T17:13:01.137Z,82.08
2022-10-02T17:15:34.869Z,82.01
2022-10-02T17:18:21.414Z,81.93
2022-10-02T17:20:58.166Z,82.05
2022-10-02T17:23:26.167Z,82.10
2022-10-02T17:26:00.148Z,82.15
2022-10-02T17:28:31.195Z,82.23
2022-10-02T17:31:13.586Z,82.08
2022-10-02T17:33:45.868Z,82.15
2022-10-02T17:36:13.957Z,82.11
2022-10-02T17:38:57.191Z,82.45
2022-10-02T17:41:45.394Z,82.35
2022-10-02T17:44:34.117Z,82.34
2022-10-02T17:47:11.051Z,82.51
2022-10-02T17:49:39.069Z,82.46
2022-10-02T17:52:43.950Z,82.56
2022-10-02T17:55:37.151Z,82.65
2022-10-02T17:58:13.925Z,82.51
2022-10-02T18:00:53.261Z,82.66
2022-10-02T18:03:21.321Z,82.61
2022-10-02T18:05:52.235Z,82.58
2022-10-02T18:08:35.597Z,82.76
2022-10-02T18:11:21.619Z,82.89
2022-10-02T18:13:57.294Z,82.77
2022-10-02T18:16:29.732Z,82.97
2022-10-02T18:19:16.453Z,83.12
2022-10-02T18:22:03.294Z,83.20
2022-10-02T18:24:31.954Z,83.16
2022-10-02T18:26:59.825Z,83.22
2022-10-02T18:29:46.340Z,83.47
2022-10-02T18:32:21.635Z,83.44
2022-10-02T18:34:49.686Z,83.36
2022-10-02T18:37:25.140Z,83.68
2022-10-02T18:40:02.627Z,83.74
2022-10-02T18:42:52.992Z,83.61
2022-10-02T18:45:27.417Z,83.63
2022-10-02T18:47:55.545Z,83.88
2022-10-02T18:50:27.685Z,84.04
2022-10-02T18:53:00.013Z,83.74
2022-10-02T18:55:46.875Z,83.44
2022-10-02T18:58:24.286Z,83.17
2022-10-02T19:01:12.524Z,83.46
2022-10-02T19:03:46.562Z,83.67
2022-10-02T19:06:26.879Z,84.00
2022-10-02T19:09:05.119Z,84.20
2022-10-02T19:11:36.749Z,84.16
2022-10-02T19:14:23.588Z,84.21
2022-10-02T19:17:18.015Z,84.26
2022-10-02T19:19:46.132Z,84.29
2022-10-02T19:22:20.404Z,84.27
2022-10-02T19:24:51.274Z,84.39
2022-10-02T19:27:32.873Z,84.36
2022-10-02T19:30:02.430Z,84.47
2022-10-02T19:32:36.940Z,84.68
2022-10-02T19:35:11.509Z,84.92
2022-10-02T19:37:43.860Z,85.06
2022-10-02T19:40:18.208Z,85.10
2022-10-02T19:42:49.457Z,85.10
2022-10-02T19:45:30.083Z,85.27
2022-10-02T19:48:00.524Z,85.23
2022-10-02T19:50:43.075Z,85.35
2022-10-02T19:53:21.055Z,85.51
2022-10-02T19:55:55.949Z,85.66
2022-10-02T19:58:37.757Z,85.80
2022-10-02T20:01:21.261Z,86.08
2022-10-02T20:03:54.020Z,85.71
2022-10-02T20:06:23.764Z,85.90
2022-10-02T20:09:13.086Z,86.08
2022-10-02T20:11:46.693Z,86.15
2022-10-02T20:14:20.589Z,86.12
2022-10-02T20:17:07.507Z,86.31
2022-10-02T20:19:41.671Z,86.59
2022-10-02T20:22:28.544Z,86.57
2022-10-02T20:25:00.043Z,86.89
2022-10-02T20:27:34.943Z,86.70
2022-10-02T20:30:05.546Z,86.71
2022-10-02T20:32:37.371Z,86.90
2022-10-02T20:35:19.092Z,86.94
2022-10-02T20:37:49.237Z,87.05
2022-10-02T20:40:17.130Z,86.97
2022-10-02T20:42:51.182Z,87.03
2022-10-02T20:45:19.936Z,87.26
2022-10-02T20:48:04.514Z,87.21
2022-10-02T20:50:33.277Z,87.45
2022-10-02T20:53:20.183Z,87.83
2022-10-02T20:56:07.108Z,87.73
2022-10-02T20:58:50.809Z,88.00
2022-10-02T21:01:37.915Z,88.18
2022-10-02T21:04:07.086Z,88.28
2022-10-02T21:06:44.168Z,88.16
2022-10-02T21:09:15.159Z,88.44
2022-10-02T21:12:01.671Z,88.32
2022-10-02T21:14:45.014Z,88.76
2022-10-02T21:17:31.074Z,88.51
2022-10-02T21:20:27.739Z,88.43
2022-10-02T21:23:25.202Z,89.05
2022-10-02T21:26:12.055Z,89.08
2022-10-02T21:28:41.356Z,89.22
2022-10-02T21:31:18.173Z,89.26
2022-10-02T21:34:04.866Z,89.38
2022-10-02T21:36:37.321Z,89.26
2022-10-02T21:39:27.584Z,89.69
2022-10-02T21:42:10.771Z,89.44
2022-10-02T21:45:00.408Z,89.48
2022-10-02T21:47:39.405Z,89.51
2022-10-02T21:50:26.562Z,89.46
2022-10-02T21:52:58.491Z,89.53
2022-10-02T21:55:52.506Z,89.55
2022-10-02T21:58:36.074Z,89.68
2022-10-02T22:01:15.905Z,89.71
2022-10-02T22:03:55.604Z,89.72
2022-10-02T22:06:25.778Z,89.64
2022-10-02T22:09:03.419Z,89.77
2022-10-02T22:11:32.776Z,89.86
2022-10-02T22:14:08.635Z,90.10
2022-10-02T22:16:57.209Z,90.22
2022-10-02T22:19:34.338Z,90.07
2022-10-02T22:22:05.102Z,90.22
2022-10-02T22:24:35.889Z,90.22
2022-10-02T22:27:12.891Z,90.18
2022-10-02T22:29:47.928Z,90.86
2022-10-02T22:32:46.081Z,90.67
2022-10-02T22:35:42.923Z,90.58
2022-10-02T22:38:13.683Z,90.98
2022-10-02T22:40:44.825Z,90.92
2022-10-02T22:43:35.863Z,90.84
2022-10-02T22:46:09.987Z,90.79
2022-10-02T22:48:40.504Z,91.13
2022-10-02T22:51:22.669Z,91.22
2022-10-02T22:54:02.868Z,91.23
2022-10-02T22:56:30.903Z,91.31
2022-10-02T22:59:02.367Z,91.36
2022-10-02T23:01:37.931Z,91.10
2022-10-02T23:04:21.814Z,91.11
2022-10-02T23:07:02.308Z,91.45
2022-10-02T23:09:38.215Z,91.40
2022-10-02T23:12:17.639Z,91.49
2022-10-02T23:14:51.306Z,91.44
2022-10-02T23:17:39.653Z,91.66
2022-10-02T23:20:15.478Z,91.52
2022-10-02T23:22:58.598Z,91.83
2022-10-02T23:25:33.338Z,91.70
2022-10-02T23:28:06.312Z,92.02
2022-10-02T23:30:38.733Z,92.20
2022-10-02T23:33:25.219Z,92.14
2022-10-02T23:35:59.164Z,92.11
2022-10-02T23:38:46.598Z,92.16
2022-10-02T23:41:46.644Z,92.07
2022-10-02T23:44:24.663Z,92.22
2022-10-02T23:46:54.310Z,92.18
2022-10-02T23:49:45.548Z,92.15
2022-10-02T23:52:16.415Z,92.37
2022-10-02T23:55:01.735Z,92.17
2022-10-02T23:57:35.753Z,92.12
